Time;durP1;ratioP1;P1;durP2;ratioP2;P2;SDS_P1;SDS_P2;PMS_P1;PMS_P2;Temp;Humidity;BMP_temperature;BMP_pressure;BME280_temperature;BME280_humidity;BME280_pressure;Samples;Min_cycle;Max_cycle;Signal;HPM_P1;HPM_P2
2023/12/07 00:00:02;;;;;;;10.27;5.15;;;;;;;;;;6226733;28;20471;-72
2023/12/07 00:03:08;;;;;;;10.57;5.55;;;;;;;;;;6210280;28;20469;-73
2023/12/07 00:06:10;;;;;;;7.95;5.28;;;;;;;;;;6203162;28;20545;-72
2023/12/07 00:09:12;;;;;;;9.68;4.47;;;;;;;;;;6211973;28;20057;-73
2023/12/07 00:12:15;;;;;;;6.80;4.18;;;;;;;;;;6226204;28;20057;-72
2023/12/07 00:15:18;;;;;;;6.57;3.65;;;;;;;;;;6230164;28;20050;-73
2023/12/07 00:18:20;;;;;;;7.53;3.63;;;;;;;;;;6222895;28;20136;-73
2023/12/07 00:21:22;;;;;;;8.07;4.47;;;;;;;;;;6227903;28;20560;-72
2023/12/07 00:24:24;;;;;;;6.70;4.25;;;;;;;;;;6221784;28;20060;-73
2023/12/07 00:27:26;;;;;;;7.85;4.85;;;;;;;;;;6223284;28;20069;-72
2023/12/07 00:30:29;;;;;;;7.68;5.53;;;;;;;;;;6233733;28;20045;-73
2023/12/07 00:33:31;;;;;;;9.73;5.90;;;;;;;;;;6223852;28;20046;-72
2023/12/07 00:36:33;;;;;;;8.13;5.60;;;;;;;;;;6227475;28;20104;-73
2023/12/07 00:39:36;;;;;;;11.05;6.10;;;;;;;;;;6203404;28;20049;-72
2023/12/07 00:42:39;;;;;;;12.63;6.80;;;;;;;;;;6202533;28;20112;-72
2023/12/07 00:45:41;;;;;;;13.68;8.70;;;;;;;;;;6224420;28;20049;-72
2023/12/07 00:48:44;;;;;;;12.65;6.72;;;;;;;;;;6227307;28;20186;-73
2023/12/07 00:51:46;;;;;;;11.90;6.93;;;;;;;;;;6197455;28;20050;-72
2023/12/07 00:54:48;;;;;;;15.43;9.00;;;;;;;;;;6221451;28;20052;-72
2023/12/07 00:57:50;;;;;;;13.23;8.90;;;;;;;;;;6217314;28;20038;-72
2023/12/07 01:00:52;;;;;;;11.55;7.00;;;;;;;;;;6220021;28;20046;-72
2023/12/07 01:03:55;;;;;;;11.48;6.70;;;;;;;;;;6227252;28;20053;-73
2023/12/07 01:06:57;;;;;;;12.93;8.50;;;;;;;;;;6236558;28;20033;-73
2023/12/07 01:10:00;;;;;;;14.55;9.85;;;;;;;;;;6207974;28;20111;-72
2023/12/07 01:13:02;;;;;;;15.23;9.43;;;;;;;;;;6199247;28;20057;-73
2023/12/07 01:16:06;;;;;;;15.65;8.35;;;;;;;;;;6189995;28;20112;-73
2023/12/07 01:19:09;;;;;;;18.55;8.68;;;;;;;;;;6224679;28;20057;-72
2023/12/07 01:22:11;;;;;;;12.82;7.90;;;;;;;;;;6207610;28;20156;-73
2023/12/07 01:25:19;;;;;;;13.25;8.02;;;;;;;;;;6222619;28;20080;-72
2023/12/07 01:28:22;;;;;;;18.90;11.18;;;;;;;;;;6201807;28;20482;-72
2023/12/07 01:31:24;;;;;;;16.83;8.93;;;;;;;;;;6231889;28;20049;-72
2023/12/07 01:34:26;;;;;;;99.45;40.67;;;;;;;;;;6206248;28;20037;-73
2023/12/07 01:37:29;;;;;;;79.13;32.75;;;;;;;;;;6213045;28;20044;-72
2023/12/07 01:40:31;;;;;;;94.88;45.85;;;;;;;;;;6230703;28;20602;-72
2023/12/07 01:43:33;;;;;;;53.42;26.13;;;;;;;;;;6213255;28;20064;-72
2023/12/07 01:46:36;;;;;;;17.63;10.90;;;;;;;;;;6230428;28;20077;-72
2023/12/07 01:49:38;;;;;;;19.40;10.30;;;;;;;;;;6211677;28;20147;-72
2023/12/07 01:52:45;;;;;;;16.88;10.25;;;;;;;;;;6205095;28;20134;-72
2023/12/07 01:55:47;;;;;;;19.23;10.00;;;;;;;;;;6204050;28;20045;-72
2023/12/07 01:58:50;;;;;;;19.45;10.38;;;;;;;;;;6217022;28;20053;-72
2023/12/07 02:01:52;;;;;;;15.13;9.43;;;;;;;;;;6224808;28;20136;-72
2023/12/07 02:04:55;;;;;;;25.55;12.95;;;;;;;;;;6207533;28;20049;-72
2023/12/07 02:07:57;;;;;;;22.25;14.68;;;;;;;;;;6228547;28;20052;-72
2023/12/07 02:11:01;;;;;;;19.75;11.57;;;;;;;;;;6229232;28;20115;-72
2023/12/07 02:14:03;;;;;;;20.30;11.80;;;;;;;;;;6203385;28;20408;-71
2023/12/07 02:17:10;;;;;;;16.92;11.48;;;;;;;;;;6227326;28;20047;-72
2023/12/07 02:20:48;;;;;;;34.00;19.00;;;;;;;;;;6211902;28;20718;-73
2023/12/07 02:23:55;;;;;;;33.70;19.30;;;;;;;;;;6202672;28;20053;-72
2023/12/07 02:26:57;;;;;;;22.05;13.38;;;;;;;;;;6231756;28;20140;-72
2023/12/07 02:29:59;;;;;;;17.08;10.43;;;;;;;;;;6222561;28;20478;-72
2023/12/07 02:33:01;;;;;;;21.08;12.65;;;;;;;;;;6198499;28;20048;-72
2023/12/07 02:36:05;;;;;;;17.35;10.82;;;;;;;;;;6221251;28;20044;-72
2023/12/07 02:39:08;;;;;;;18.15;10.73;;;;;;;;;;6215216;28;20056;-72
2023/12/07 02:42:10;;;;;;;20.58;12.40;;;;;;;;;;6203831;28;20040;-72
2023/12/07 02:45:13;;;;;;;18.15;11.38;;;;;;;;;;6230665;28;20073;-72
2023/12/07 02:48:17;;;;;;;19.90;12.07;;;;;;;;;;6216056;28;20130;-73
2023/12/07 02:51:19;;;;;;;19.60;11.93;;;;;;;;;;6228147;28;20050;-72
2023/12/07 02:54:22;;;;;;;17.33;11.00;;;;;;;;;;6233621;28;20056;-73
2023/12/07 02:57:24;;;;;;;72.05;43.95;;;;;;;;;;6229517;28;20065;-72
2023/12/07 03:00:26;;;;;;;31.27;19.00;;;;;;;;;;6222486;28;20065;-72
2023/12/07 03:03:29;;;;;;;26.23;15.68;;;;;;;;;;6233991;28;20767;-72
2023/12/07 03:06:31;;;;;;;16.65;11.48;;;;;;;;;;6230578;28;20041;-72
2023/12/07 03:09:33;;;;;;;19.45;13.07;;;;;;;;;;6224714;28;20049;-72
2023/12/07 03:12:36;;;;;;;22.02;13.18;;;;;;;;;;6210817;28;20502;-72
2023/12/07 03:15:38;;;;;;;36.92;19.75;;;;;;;;;;6229633;28;20520;-72
2023/12/07 03:18:40;;;;;;;24.45;15.15;;;;;;;;;;6212611;28;20053;-72
2023/12/07 03:21:42;;;;;;;24.83;15.25;;;;;;;;;;6213294;28;20050;-72
2023/12/07 03:24:50;;;;;;;20.60;13.25;;;;;;;;;;6229959;28;20056;-72
2023/12/07 03:27:52;;;;;;;21.75;12.18;;;;;;;;;;6218008;28;20038;-72
2023/12/07 03:30:55;;;;;;;18.83;11.23;;;;;;;;;;6212014;28;20046;-72
2023/12/07 03:33:59;;;;;;;16.40;10.20;;;;;;;;;;6234515;28;20055;-72
2023/12/07 03:37:03;;;;;;;17.02;9.48;;;;;;;;;;6222849;28;20042;-73
2023/12/07 03:40:05;;;;;;;16.70;9.57;;;;;;;;;;6192739;28;20057;-72
2023/12/07 03:43:08;;;;;;;19.02;10.98;;;;;;;;;;6217910;28;20057;-72
2023/12/07 03:46:10;;;;;;;22.92;13.02;;;;;;;;;;6229014;28;20542;-73
2023/12/07 03:49:12;;;;;;;38.65;20.02;;;;;;;;;;6232695;28;20037;-72
2023/12/07 03:52:14;;;;;;;31.75;17.00;;;;;;;;;;6215784;28;20146;-72
2023/12/07 03:55:19;;;;;;;22.02;12.88;;;;;;;;;;6230434;28;20160;-72
2023/12/07 03:58:22;;;;;;;25.63;12.55;;;;;;;;;;6237213;28;20045;-72
2023/12/07 04:01:26;;;;;;;17.33;9.73;;;;;;;;;;6233495;28;20056;-72
2023/12/07 04:04:28;;;;;;;14.05;8.10;;;;;;;;;;6213758;28;20049;-72
2023/12/07 04:07:30;;;;;;;14.00;8.75;;;;;;;;;;6212145;28;20111;-72
2023/12/07 04:10:32;;;;;;;19.35;10.35;;;;;;;;;;6231997;28;20045;-72
2023/12/07 04:13:35;;;;;;;16.98;8.93;;;;;;;;;;6207500;28;20057;-72
2023/12/07 04:16:37;;;;;;;16.20;9.25;;;;;;;;;;6231441;28;20045;-72
2023/12/07 04:19:41;;;;;;;18.05;11.63;;;;;;;;;;6210199;28;20044;-72
2023/12/07 04:22:45;;;;;;;19.88;11.73;;;;;;;;;;6202132;28;20435;-72
2023/12/07 04:25:47;;;;;;;17.33;10.40;;;;;;;;;;6230509;28;20128;-73
2023/12/07 04:28:49;;;;;;;13.73;9.63;;;;;;;;;;6228945;28;20170;-72
2023/12/07 04:31:51;;;;;;;14.93;7.70;;;;;;;;;;6217742;28;20060;-73
2023/12/07 04:34:53;;;;;;;11.07;7.43;;;;;;;;;;6223936;28;20099;-73
2023/12/07 04:37:55;;;;;;;16.92;8.85;;;;;;;;;;6229989;28;20448;-72
2023/12/07 04:40:57;;;;;;;16.42;9.55;;;;;;;;;;6229696;28;20049;-72
2023/12/07 04:43:59;;;;;;;18.77;9.93;;;;;;;;;;6229668;28;20100;-72
2023/12/07 04:47:01;;;;;;;19.42;10.52;;;;;;;;;;6228333;28;20042;-72
2023/12/07 04:50:04;;;;;;;14.52;8.88;;;;;;;;;;6223193;28;20038;-72
2023/12/07 04:53:06;;;;;;;14.63;10.13;;;;;;;;;;6234799;28;20049;-72
2023/12/07 04:56:09;;;;;;;21.92;12.15;;;;;;;;;;6217131;28;20543;-72
2023/12/07 04:59:12;;;;;;;43.10;20.70;;;;;;;;;;6221078;28;20033;-72
2023/12/07 05:02:17;;;;;;;21.30;10.88;;;;;;;;;;6200131;28;20049;-72
2023/12/07 05:05:20;;;;;;;18.52;9.95;;;;;;;;;;6224430;28;20046;-72
2023/12/07 05:08:22;;;;;;;19.60;11.82;;;;;;;;;;6208021;28;20079;-72
2023/12/07 05:11:24;;;;;;;15.32;8.93;;;;;;;;;;6236056;28;20049;-72
2023/12/07 05:14:26;;;;;;;14.93;8.82;;;;;;;;;;6224942;28;20179;-72
2023/12/07 05:17:28;;;;;;;17.48;8.40;;;;;;;;;;6202910;28;20069;-72
2023/12/07 05:20:31;;;;;;;13.15;7.13;;;;;;;;;;6220995;28;20049;-72
2023/12/07 05:23:33;;;;;;;18.33;8.63;;;;;;;;;;6226720;28;20046;-72
2023/12/07 05:26:45;;;;;;;14.00;8.80;;;;;;;;;;6231286;28;20138;-73
2023/12/07 05:29:47;;;;;;;15.27;8.82;;;;;;;;;;6224913;28;20053;-72
2023/12/07 05:32:50;;;;;;;16.10;9.32;;;;;;;;;;6220952;28;20813;-72
2023/12/07 05:35:53;;;;;;;17.55;9.95;;;;;;;;;;6234344;28;20051;-72
2023/12/07 05:38:55;;;;;;;17.50;10.15;;;;;;;;;;6227145;28;20056;-72
2023/12/07 05:41:58;;;;;;;20.30;10.10;;;;;;;;;;6222122;28;20038;-72
2023/12/07 05:45:01;;;;;;;21.92;11.32;;;;;;;;;;6224260;28;20467;-73
2023/12/07 05:48:05;;;;;;;21.65;11.90;;;;;;;;;;6224108;28;20038;-72
2023/12/07 05:51:14;;;;;;;22.00;11.93;;;;;;;;;;6223763;28;20091;-72
2023/12/07 05:54:16;;;;;;;22.95;12.10;;;;;;;;;;6228427;28;20045;-73
2023/12/07 05:57:18;;;;;;;17.13;10.65;;;;;;;;;;6212296;28;20038;-73
2023/12/07 06:00:21;;;;;;;16.42;10.57;;;;;;;;;;6227525;28;20052;-72
2023/12/07 06:03:24;;;;;;;17.02;10.43;;;;;;;;;;6228292;28;20092;-72
2023/12/07 06:06:27;;;;;;;17.60;10.85;;;;;;;;;;6221272;28;20835;-72
2023/12/07 06:09:29;;;;;;;16.25;9.40;;;;;;;;;;6230462;28;20124;-72
2023/12/07 06:12:31;;;;;;;19.63;10.02;;;;;;;;;;6225381;28;20511;-73
2023/12/07 06:15:36;;;;;;;16.92;9.27;;;;;;;;;;6217565;28;20075;-73
2023/12/07 06:18:38;;;;;;;23.52;10.40;;;;;;;;;;6210985;28;20045;-73
2023/12/07 06:21:40;;;;;;;19.27;11.13;;;;;;;;;;6205199;28;20046;-72
2023/12/07 06:24:44;;;;;;;24.45;13.00;;;;;;;;;;6223812;28;20119;-73
2023/12/07 06:27:46;;;;;;;27.70;15.75;;;;;;;;;;6229571;28;20034;-73
2023/12/07 06:30:48;;;;;;;36.88;18.70;;;;;;;;;;6217035;28;20045;-72
2023/12/07 06:33:50;;;;;;;25.05;14.68;;;;;;;;;;6227555;28;20049;-73
2023/12/07 06:36:53;;;;;;;23.17;12.77;;;;;;;;;;6225944;28;20075;-73
2023/12/07 06:39:55;;;;;;;27.30;13.10;;;;;;;;;;6227644;28;20846;-73
2023/12/07 06:42:57;;;;;;;24.73;11.95;;;;;;;;;;6215697;28;20054;-73
2023/12/07 06:45:59;;;;;;;22.35;12.13;;;;;;;;;;6226515;28;20077;-74
2023/12/07 06:49:01;;;;;;;23.17;12.00;;;;;;;;;;6224783;28;20117;-73
2023/12/07 06:52:04;;;;;;;26.60;13.38;;;;;;;;;;6222323;28;20041;-72
2023/12/07 06:55:06;;;;;;;25.70;14.18;;;;;;;;;;6228310;28;20045;-72
2023/12/07 06:58:09;;;;;;;28.30;14.15;;;;;;;;;;6227299;28;20136;-73
2023/12/07 07:01:13;;;;;;;30.63;16.42;;;;;;;;;;6220056;28;20061;-73
2023/12/07 07:04:16;;;;;;;31.60;17.30;;;;;;;;;;6205692;28;20796;-73
2023/12/07 07:07:19;;;;;;;35.42;17.38;;;;;;;;;;6226910;28;20431;-72
2023/12/07 07:10:21;;;;;;;30.88;16.45;;;;;;;;;;6225900;28;21605;-72
2023/12/07 07:13:23;;;;;;;32.20;15.35;;;;;;;;;;6227683;28;20838;-73
2023/12/07 07:16:26;;;;;;;31.35;14.93;;;;;;;;;;6208827;28;20041;-74
2023/12/07 07:19:29;;;;;;;29.17;13.57;;;;;;;;;;6215327;28;20533;-73
2023/12/07 07:22:31;;;;;;;27.70;14.90;;;;;;;;;;6224722;28;20130;-72
2023/12/07 07:25:34;;;;;;;37.75;16.17;;;;;;;;;;6218948;28;20060;-72
2023/12/07 07:28:36;;;;;;;32.75;16.10;;;;;;;;;;6220831;28;20050;-73
2023/12/07 07:31:40;;;;;;;25.10;13.95;;;;;;;;;;6208453;28;20057;-73
2023/12/07 07:34:42;;;;;;;34.00;18.92;;;;;;;;;;6231644;28;20061;-72
2023/12/07 07:37:44;;;;;;;63.97;39.83;;;;;;;;;;6220407;28;20030;-73
2023/12/07 07:40:48;;;;;;;31.77;19.25;;;;;;;;;;6202623;28;20053;-72
2023/12/07 07:43:50;;;;;;;21.02;13.45;;;;;;;;;;6214568;28;20073;-73
2023/12/07 07:46:53;;;;;;;18.15;12.10;;;;;;;;;;6231501;28;20751;-73
2023/12/07 07:49:55;;;;;;;26.85;18.55;;;;;;;;;;6231901;28;20069;-73
2023/12/07 07:52:59;;;;;;;27.42;16.23;;;;;;;;;;6218375;28;20535;-72
2023/12/07 07:56:01;;;;;;;18.60;12.00;;;;;;;;;;6222938;28;20057;-72
2023/12/07 07:59:03;;;;;;;22.38;13.68;;;;;;;;;;6231384;28;20037;-72
2023/12/07 08:02:06;;;;;;;24.15;16.15;;;;;;;;;;6231626;28;20041;-72
2023/12/07 08:05:09;;;;;;;23.88;14.63;;;;;;;;;;6215352;28;20522;-71
2023/12/07 08:08:11;;;;;;;20.95;12.10;;;;;;;;;;6196529;28;20132;-72
2023/12/07 08:11:16;;;;;;;22.60;12.85;;;;;;;;;;6209942;28;20053;-72
2023/12/07 08:14:18;;;;;;;20.42;13.40;;;;;;;;;;6226956;28;20641;-72
2023/12/07 08:17:21;;;;;;;22.27;14.75;;;;;;;;;;6233339;28;20041;-74
2023/12/07 08:20:24;;;;;;;21.60;16.58;;;;;;;;;;6231538;28;20072;-73
2023/12/07 08:23:27;;;;;;;28.67;17.33;;;;;;;;;;6213881;28;20072;-74
2023/12/07 08:26:29;;;;;;;26.75;15.10;;;;;;;;;;6227933;28;20049;-72
2023/12/07 08:29:32;;;;;;;25.73;15.38;;;;;;;;;;6229933;28;20178;-72
2023/12/07 08:32:34;;;;;;;18.17;12.02;;;;;;;;;;6217621;28;20049;-72
2023/12/07 08:35:37;;;;;;;18.52;10.88;;;;;;;;;;6205047;28;20092;-72
2023/12/07 08:38:39;;;;;;;14.40;9.30;;;;;;;;;;6230072;28;20111;-72
2023/12/07 08:41:41;;;;;;;18.70;10.43;;;;;;;;;;6233171;28;20128;-72
2023/12/07 08:44:43;;;;;;;14.63;9.38;;;;;;;;;;6228625;28;20045;-72
2023/12/07 08:47:46;;;;;;;13.55;8.70;;;;;;;;;;6217909;28;20045;-73
2023/12/07 08:50:49;;;;;;;16.38;10.75;;;;;;;;;;6232753;28;20049;-72
2023/12/07 08:53:52;;;;;;;15.95;11.18;;;;;;;;;;6229808;28;20068;-72
2023/12/07 08:56:56;;;;;;;14.02;9.25;;;;;;;;;;6233914;28;20172;-73
2023/12/07 08:59:59;;;;;;;14.02;8.98;;;;;;;;;;6219501;28;20044;-72
2023/12/07 09:03:02;;;;;;;12.30;8.13;;;;;;;;;;6217733;28;20045;-72
2023/12/07 09:06:05;;;;;;;11.43;8.20;;;;;;;;;;6225009;28;20138;-72
2023/12/07 09:09:08;;;;;;;13.05;9.00;;;;;;;;;;6228094;28;20033;-72
2023/12/07 09:12:10;;;;;;;11.65;7.25;;;;;;;;;;6229898;28;20076;-72
2023/12/07 09:15:12;;;;;;;11.30;7.93;;;;;;;;;;6224900;28;20041;-72
2023/12/07 09:18:14;;;;;;;9.80;7.13;;;;;;;;;;6212011;28;20037;-72
2023/12/07 09:21:16;;;;;;;8.95;4.45;;;;;;;;;;6227837;28;20098;-72
2023/12/07 09:24:19;;;;;;;14.23;6.50;;;;;;;;;;6232241;28;20044;-72
2023/12/07 09:27:21;;;;;;;11.32;8.70;;;;;;;;;;6227929;28;20045;-71
2023/12/07 09:30:24;;;;;;;13.50;9.82;;;;;;;;;;6232220;28;20044;-71
2023/12/07 09:33:26;;;;;;;12.07;7.93;;;;;;;;;;6221893;28;20045;-72
2023/12/07 09:36:30;;;;;;;13.40;6.95;;;;;;;;;;6222495;28;20046;-72
2023/12/07 09:39:33;;;;;;;7.93;5.82;;;;;;;;;;6217873;28;20049;-72
2023/12/07 09:42:36;;;;;;;8.90;6.30;;;;;;;;;;6215358;28;20621;-72
2023/12/07 09:45:38;;;;;;;7.47;5.25;;;;;;;;;;6221042;28;20041;-72
2023/12/07 09:48:43;;;;;;;8.32;6.32;;;;;;;;;;6219216;28;20969;-72
2023/12/07 09:51:46;;;;;;;15.40;6.57;;;;;;;;;;6226169;28;20084;-72
2023/12/07 09:54:51;;;;;;;9.95;4.53;;;;;;;;;;6215272;28;20094;-72
2023/12/07 09:57:56;;;;;;;9.23;5.47;;;;;;;;;;6196816;28;20869;-72
2023/12/07 10:00:59;;;;;;;30.55;12.57;;;;;;;;;;6207849;28;20050;-73
2023/12/07 10:04:22;;;;;;;8.77;5.07;;;;;;;;;;6228121;28;20666;-72
2023/12/07 10:07:34;;;;;;;8.77;5.78;;;;;;;;;;6204680;28;20053;-72
2023/12/07 10:10:37;;;;;;;8.18;5.63;;;;;;;;;;6188270;28;20598;-72
2023/12/07 10:13:40;;;;;;;8.38;5.57;;;;;;;;;;6210786;28;20485;-72
2023/12/07 10:16:55;;;;;;;8.85;7.43;;;;;;;;;;6220828;28;20064;-72
2023/12/07 10:20:08;;;;;;;5.55;4.30;;;;;;;;;;6221916;28;20072;-72
2023/12/07 10:23:11;;;;;;;6.93;4.38;;;;;;;;;;6212606;28;20046;-72
2023/12/07 10:26:13;;;;;;;10.05;6.30;;;;;;;;;;6220862;28;20038;-72
2023/12/07 10:29:19;;;;;;;8.85;4.72;;;;;;;;;;6218863;28;20037;-72
2023/12/07 10:32:36;;;;;;;5.30;3.15;;;;;;;;;;6230462;28;20072;-72
2023/12/07 10:35:40;;;;;;;5.72;4.93;;;;;;;;;;6231971;28;20045;-73
2023/12/07 10:38:42;;;;;;;5.40;4.35;;;;;;;;;;6213251;28;20033;-72
2023/12/07 10:41:45;;;;;;;4.93;3.72;;;;;;;;;;6232773;28;20048;-72
2023/12/07 10:44:50;;;;;;;3.25;2.20;;;;;;;;;;6199854;28;20548;-72
2023/12/07 10:47:55;;;;;;;4.63;3.75;;;;;;;;;;6223495;28;20039;-72
2023/12/07 10:51:00;;;;;;;3.83;2.80;;;;;;;;;;6220592;28;20056;-72
2023/12/07 10:54:04;;;;;;;6.55;4.75;;;;;;;;;;6223826;28;20116;-72
2023/12/07 10:57:08;;;;;;;3.55;2.90;;;;;;;;;;6212400;28;20073;-72
2023/12/07 11:00:11;;;;;;;3.90;3.00;;;;;;;;;;6238582;28;20530;-72
2023/12/07 11:03:17;;;;;;;5.88;3.78;;;;;;;;;;6219694;28;20132;-74
2023/12/07 11:06:23;;;;;;;5.05;4.13;;;;;;;;;;6216743;28;20042;-71
2023/12/07 11:09:30;;;;;;;10.63;8.30;;;;;;;;;;6215276;28;20049;-72
2023/12/07 11:12:37;;;;;;;6.35;4.43;;;;;;;;;;6202777;28;20061;-72
2023/12/07 11:15:40;;;;;;;3.45;1.85;;;;;;;;;;6219691;28;20164;-72
2023/12/07 11:18:43;;;;;;;7.78;4.88;;;;;;;;;;6217132;28;20149;-73
2023/12/07 11:21:45;;;;;;;4.65;3.58;;;;;;;;;;6226893;28;20045;-72
2023/12/07 11:24:57;;;;;;;6.30;4.90;;;;;;;;;;6221039;28;20041;-73
2023/12/07 11:28:04;;;;;;;18.02;9.20;;;;;;;;;;6219309;28;20166;-71
2023/12/07 11:31:07;;;;;;;6.25;4.40;;;;;;;;;;6239839;28;20062;-70
2023/12/07 11:34:13;;;;;;;10.65;4.60;;;;;;;;;;6238156;28;20438;-71
2023/12/07 11:37:19;;;;;;;4.80;3.15;;;;;;;;;;6225473;28;20045;-71
2023/12/07 11:40:23;;;;;;;9.45;3.42;;;;;;;;;;6234136;28;20149;-72
2023/12/07 11:43:38;;;;;;;4.20;3.22;;;;;;;;;;6217922;28;20049;-70
2023/12/07 11:46:40;;;;;;;6.97;4.70;;;;;;;;;;6244406;28;20060;-71
2023/12/07 11:49:44;;;;;;;6.63;4.47;;;;;;;;;;6226832;28;20046;-73
2023/12/07 11:52:46;;;;;;;4.05;3.42;;;;;;;;;;6230023;28;20041;-71
2023/12/07 11:55:48;;;;;;;9.30;3.55;;;;;;;;;;6232182;28;20052;-72
2023/12/07 11:58:52;;;;;;;17.33;9.00;;;;;;;;;;6197591;28;20088;-72
2023/12/07 12:01:54;;;;;;;4.22;3.50;;;;;;;;;;6238899;28;20061;-73
2023/12/07 12:04:58;;;;;;;6.93;6.03;;;;;;;;;;6209920;28;20041;-73
2023/12/07 12:08:00;;;;;;;6.15;4.55;;;;;;;;;;6194442;28;20056;-72
2023/12/07 12:11:02;;;;;;;5.93;4.75;;;;;;;;;;6213776;28;20042;-73
2023/12/07 12:14:06;;;;;;;4.50;4.10;;;;;;;;;;6232080;28;20530;-72
2023/12/07 12:17:08;;;;;;;3.83;3.20;;;;;;;;;;6233182;28;20523;-73
2023/12/07 12:20:10;;;;;;;5.07;3.80;;;;;;;;;;6218466;28;20444;-72
2023/12/07 12:23:13;;;;;;;5.32;4.55;;;;;;;;;;6223097;28;20053;-72
2023/12/07 12:26:16;;;;;;;5.82;5.18;;;;;;;;;;6204953;28;20037;-72
2023/12/07 12:29:18;;;;;;;11.43;6.72;;;;;;;;;;6213226;28;20041;-72
2023/12/07 12:32:45;;;;;;;6.28;5.07;;;;;;;;;;6232416;28;20069;-73
2023/12/07 12:36:04;;;;;;;5.85;4.72;;;;;;;;;;6202125;28;20049;-72
2023/12/07 12:39:08;;;;;;;4.72;3.33;;;;;;;;;;6214308;28;20084;-72
2023/12/07 12:42:25;;;;;;;6.10;4.32;;;;;;;;;;6231018;28;20060;-69
2023/12/07 12:45:27;;;;;;;7.25;4.45;;;;;;;;;;6232868;28;20048;-70
2023/12/07 12:48:29;;;;;;;5.55;3.45;;;;;;;;;;6213594;28;20315;-72
2023/12/07 12:51:32;;;;;;;8.95;4.00;;;;;;;;;;6211510;28;20142;-71
2023/12/07 12:54:35;;;;;;;8.32;5.13;;;;;;;;;;6229708;28;20145;-71
2023/12/07 12:57:38;;;;;;;6.18;3.90;;;;;;;;;;6233724;28;20578;-71
2023/12/07 13:00:43;;;;;;;5.63;3.42;;;;;;;;;;6213438;28;20076;-72
2023/12/07 13:03:46;;;;;;;3.55;3.13;;;;;;;;;;6216936;28;20049;-72
2023/12/07 13:06:49;;;;;;;4.03;3.17;;;;;;;;;;6206211;28;20054;-72
2023/12/07 13:09:51;;;;;;;8.20;5.63;;;;;;;;;;6213335;28;20049;-74
2023/12/07 13:12:53;;;;;;;6.18;3.90;;;;;;;;;;6217283;28;20041;-72
2023/12/07 13:15:55;;;;;;;4.50;3.75;;;;;;;;;;6228397;28;20599;-72
2023/12/07 13:18:57;;;;;;;6.45;4.93;;;;;;;;;;6229793;28;20041;-72
2023/12/07 13:22:00;;;;;;;4.75;4.00;;;;;;;;;;6224534;28;20136;-72
2023/12/07 13:25:03;;;;;;;5.20;3.22;;;;;;;;;;6199085;28;20446;-72
2023/12/07 13:28:05;;;;;;;4.85;4.28;;;;;;;;;;6224146;28;20050;-72
2023/12/07 13:31:07;;;;;;;5.88;4.05;;;;;;;;;;6225277;28;20049;-71
2023/12/07 13:34:11;;;;;;;4.47;3.70;;;;;;;;;;6227139;28;20046;-72
2023/12/07 13:37:24;;;;;;;4.85;3.10;;;;;;;;;;6228292;28;20057;-72
2023/12/07 13:40:27;;;;;;;5.20;4.10;;;;;;;;;;6208486;28;20046;-73
2023/12/07 13:43:29;;;;;;;6.28;3.38;;;;;;;;;;6213270;28;20059;-72
2023/12/07 13:46:34;;;;;;;;;;;;;;;;;;6226127;28;20045;-74
2023/12/07 13:49:38;;;;;;;6.88;3.58;;;;;;;;;;6219126;28;19986;-73
2023/12/07 13:52:41;;;;;;;5.65;3.47;;;;;;;;;;6234440;28;20045;-74
2023/12/07 13:55:45;;;;;;;7.70;6.90;;;;;;;;;;6231575;28;20054;-75
2023/12/07 13:58:48;;;;;;;9.95;5.60;;;;;;;;;;6233825;28;20046;-74
2023/12/07 14:01:50;;;;;;;9.52;6.38;;;;;;;;;;6240968;28;20049;-74
2023/12/07 14:04:52;;;;;;;6.25;5.50;;;;;;;;;;6198032;28;20112;-75
2023/12/07 14:07:54;;;;;;;7.78;6.30;;;;;;;;;;6239061;28;20050;-73
2023/12/07 14:10:57;;;;;;;6.95;5.30;;;;;;;;;;6232178;28;20055;-73
2023/12/07 14:13:59;;;;;;;5.75;4.47;;;;;;;;;;6229446;28;20553;-73
2023/12/07 14:17:03;;;;;;;5.25;4.47;;;;;;;;;;6236683;28;20038;-74
2023/12/07 14:20:12;;;;;;;8.40;7.40;;;;;;;;;;6223160;28;20041;-73
2023/12/07 14:23:35;;;;;;;4.95;4.05;;;;;;;;;;6206149;28;20053;-74
2023/12/07 14:26:43;;;;;;;6.25;5.68;;;;;;;;;;6233728;28;20041;-74
2023/12/07 14:29:46;;;;;;;4.65;4.22;;;;;;;;;;6231825;28;20054;-73
2023/12/07 14:32:51;;;;;;;8.55;7.28;;;;;;;;;;6202397;28;20054;-73
2023/12/07 14:35:55;;;;;;;13.65;8.90;;;;;;;;;;6226829;28;20048;-73
2023/12/07 14:38:57;;;;;;;9.50;7.05;;;;;;;;;;6232163;28;20121;-74
2023/12/07 14:41:59;;;;;;;6.80;5.10;;;;;;;;;;6207916;28;20187;-74
2023/12/07 14:45:04;;;;;;;8.68;4.82;;;;;;;;;;6204005;28;20531;-74
2023/12/07 14:48:06;;;;;;;12.48;8.32;;;;;;;;;;6209047;28;20045;-74
2023/12/07 14:51:09;;;;;;;10.00;5.82;;;;;;;;;;6217036;28;20075;-74
2023/12/07 14:54:11;;;;;;;7.72;5.35;;;;;;;;;;6209042;28;20054;-74
2023/12/07 14:57:15;;;;;;;7.47;6.07;;;;;;;;;;6229078;28;20053;-72
2023/12/07 15:00:17;;;;;;;7.72;5.65;;;;;;;;;;6234572;28;20049;-73
2023/12/07 15:03:19;;;;;;;5.85;4.47;;;;;;;;;;6213105;28;20798;-74
2023/12/07 15:06:22;;;;;;;20.50;11.07;;;;;;;;;;6221119;28;20539;-72
2023/12/07 15:09:28;;;;;;;13.63;9.05;;;;;;;;;;6189111;28;20049;-74
2023/12/07 15:12:30;;;;;;;10.88;8.63;;;;;;;;;;6200175;28;20859;-72
2023/12/07 15:15:33;;;;;;;14.20;12.18;;;;;;;;;;6229678;28;20068;-74
2023/12/07 15:18:36;;;;;;;12.20;9.68;;;;;;;;;;6215207;28;20050;-73
2023/12/07 15:21:38;;;;;;;5.88;4.88;;;;;;;;;;6221428;28;20065;-73
2023/12/07 15:24:40;;;;;;;10.00;8.15;;;;;;;;;;6191986;28;20054;-73
2023/12/07 15:27:42;;;;;;;10.38;6.78;;;;;;;;;;6194335;28;20057;-73
2023/12/07 15:30:46;;;;;;;10.35;7.93;;;;;;;;;;6212953;28;20085;-75
2023/12/07 15:33:48;;;;;;;13.02;8.07;;;;;;;;;;6232249;28;20073;-72
2023/12/07 15:36:51;;;;;;;18.13;13.95;;;;;;;;;;6220113;28;20152;-74
2023/12/07 15:39:53;;;;;;;26.65;16.95;;;;;;;;;;6219343;28;20187;-74
2023/12/07 15:42:57;;;;;;;15.23;11.70;;;;;;;;;;6205305;28;20076;-75
2023/12/07 15:45:59;;;;;;;12.80;7.88;;;;;;;;;;6224359;28;20057;-75
2023/12/07 15:49:01;;;;;;;20.10;15.13;;;;;;;;;;6202808;28;20057;-74
2023/12/07 15:52:04;;;;;;;13.75;11.23;;;;;;;;;;6220807;28;20100;-75
2023/12/07 15:55:06;;;;;;;19.92;12.23;;;;;;;;;;6233546;28;20771;-74
2023/12/07 15:58:09;;;;;;;9.80;8.55;;;;;;;;;;6228794;28;20603;-72
2023/12/07 16:01:11;;;;;;;8.23;6.78;;;;;;;;;;6201647;28;20045;-73
2023/12/07 16:04:15;;;;;;;9.40;7.65;;;;;;;;;;6233270;28;20088;-74
2023/12/07 16:07:30;;;;;;;9.43;7.40;;;;;;;;;;6229218;28;20535;-73
2023/12/07 16:10:32;;;;;;;14.88;9.57;;;;;;;;;;6230074;28;20558;-75
2023/12/07 16:13:35;;;;;;;8.60;6.60;;;;;;;;;;6240276;28;20053;-74
2023/12/07 16:16:38;;;;;;;11.93;8.43;;;;;;;;;;6220922;28;20050;-75
2023/12/07 16:19:40;;;;;;;12.18;8.15;;;;;;;;;;6241718;28;20057;-74
2023/12/07 16:22:44;;;;;;;22.90;13.65;;;;;;;;;;6207671;28;20077;-75
2023/12/07 16:25:46;;;;;;;14.82;7.28;;;;;;;;;;6235795;28;20131;-75
2023/12/07 16:28:50;;;;;;;9.80;6.25;;;;;;;;;;6230199;28;20355;-73
2023/12/07 16:31:52;;;;;;;12.05;6.07;;;;;;;;;;6235097;28;20045;-77
2023/12/07 16:34:55;;;;;;;14.55;7.55;;;;;;;;;;6229134;28;20050;-75
2023/12/07 16:37:58;;;;;;;16.52;10.77;;;;;;;;;;6233200;28;20053;-74
2023/12/07 16:41:02;;;;;;;12.38;8.40;;;;;;;;;;6233824;28;20045;-75
2023/12/07 16:44:04;;;;;;;13.60;10.05;;;;;;;;;;6215306;28;20045;-73
2023/12/07 16:47:06;;;;;;;20.52;8.75;;;;;;;;;;6231898;28;20161;-74
2023/12/07 16:50:11;;;;;;;13.75;8.93;;;;;;;;;;6225551;28;20080;-73
2023/12/07 16:53:14;;;;;;;14.02;9.23;;;;;;;;;;6207985;28;20138;-72
2023/12/07 16:56:17;;;;;;;19.48;13.02;;;;;;;;;;6221591;28;20052;-74
2023/12/07 16:59:19;;;;;;;12.50;6.63;;;;;;;;;;6204654;28;20067;-74
2023/12/07 17:02:23;;;;;;;14.65;9.70;;;;;;;;;;6219504;28;20045;-76
2023/12/07 17:05:25;;;;;;;11.07;7.30;;;;;;;;;;6227575;28;20064;-74
2023/12/07 17:08:27;;;;;;;11.27;7.00;;;;;;;;;;6224268;28;20049;-74
2023/12/07 17:11:29;;;;;;;17.23;11.32;;;;;;;;;;6195370;28;20434;-74
2023/12/07 17:14:32;;;;;;;12.10;8.00;;;;;;;;;;6225443;28;20057;-74
2023/12/07 17:17:35;;;;;;;18.60;12.18;;;;;;;;;;6214486;28;20046;-74
2023/12/07 17:20:37;;;;;;;12.85;9.25;;;;;;;;;;6235314;28;20903;-73
2023/12/07 17:23:40;;;;;;;11.60;7.18;;;;;;;;;;6239501;28;20069;-74
2023/12/07 17:26:43;;;;;;;16.90;10.05;;;;;;;;;;6241819;28;20340;-74
2023/12/07 17:29:54;;;;;;;;;;;;;;;;;;6223347;28;20056;-74
2023/12/07 17:32:58;;;;;;;27.95;12.30;;;;;;;;;;6239589;28;19925;-73
2023/12/07 17:36:00;;;;;;;10.52;8.80;;;;;;;;;;6229212;28;20833;-73
2023/12/07 17:39:03;;;;;;;15.05;9.35;;;;;;;;;;6236490;28;20046;-73
2023/12/07 17:42:05;;;;;;;16.20;11.98;;;;;;;;;;6233903;28;20053;-72
2023/12/07 17:45:07;;;;;;;12.57;8.50;;;;;;;;;;6221711;28;20098;-72
2023/12/07 17:48:11;;;;;;;13.10;8.90;;;;;;;;;;6239079;28;20053;-74
2023/12/07 17:51:14;;;;;;;14.70;7.78;;;;;;;;;;6218972;28;20045;-74
2023/12/07 17:54:16;;;;;;;11.48;8.63;;;;;;;;;;6226456;28;20151;-74
2023/12/07 17:57:18;;;;;;;13.23;8.57;;;;;;;;;;6232196;28;20053;-73
2023/12/07 18:00:20;;;;;;;10.25;7.78;;;;;;;;;;6243473;28;20045;-74
2023/12/07 18:03:29;;;;;;;10.43;7.60;;;;;;;;;;6203952;28;20038;-74